Coboconk, Canada
Current Conditions -  °F | °C
As of 6:00 PM on Wednesday 26 Nov 2014 (Local Time) from CYQA Reporting Station
Overcast Overcast  
Wind Chill: 23°   Ceiling: 3400
Heat Index: 28°   Visibility: 9mi
Dew Point: 19°   Wind: 5mph
Humidity: 69%   Direction: 360°N
Pressure: 30.11"   Gusts: NA
Location:  44.67°N, 78.8°W
Report Text: CYQA 262300Z AUTO 36004KT 310V040 9SM OVC034 M02/M07 A3011 RMK SLP210
Loading
Personal Weather Stations






























Interactive Weather Map New forecast layout! Learn more

10-Day Weather Forecast

Advertisements
Track Severe Weather on mobile